sensor_id;sensor_type;location;lat;lon;timestamp;temperature;humidity
10121;DHT22;5100;45.176;5.714;2023-02-28T00:00:35;9.20;51.40
10121;DHT22;5100;45.176;5.714;2023-02-28T00:03:03;9.20;51.50
10121;DHT22;5100;45.176;5.714;2023-02-28T00:05:29;9.20;51.50
10121;DHT22;5100;45.176;5.714;2023-02-28T00:07:55;9.20;51.60
10121;DHT22;5100;45.176;5.714;2023-02-28T00:10:27;9.20;51.60
10121;DHT22;5100;45.176;5.714;2023-02-28T00:12:55;9.20;51.60
10121;DHT22;5100;45.176;5.714;2023-02-28T00:15:23;9.20;51.70
10121;DHT22;5100;45.176;5.714;2023-02-28T00:17:50;9.20;51.60
10121;DHT22;5100;45.176;5.714;2023-02-28T00:20:16;9.10;51.70
10121;DHT22;5100;45.176;5.714;2023-02-28T00:22:46;9.10;51.80
10121;DHT22;5100;45.176;5.714;2023-02-28T00:25:14;9.10;51.90
10121;DHT22;5100;45.176;5.714;2023-02-28T00:27:41;9.10;52.00
10121;DHT22;5100;45.176;5.714;2023-02-28T00:30:11;9.10;52.00
10121;DHT22;5100;45.176;5.714;2023-02-28T00:32:37;9.10;51.90
10121;DHT22;5100;45.176;5.714;2023-02-28T00:35:04;9.10;52.00
10121;DHT22;5100;45.176;5.714;2023-02-28T00:37:31;9.10;52.00
10121;DHT22;5100;45.176;5.714;2023-02-28T00:39:57;9.10;52.00
10121;DHT22;5100;45.176;5.714;2023-02-28T00:42:23;9.10;52.00
10121;DHT22;5100;45.176;5.714;2023-02-28T00:44:50;9.10;52.20
10121;DHT22;5100;45.176;5.714;2023-02-28T00:47:16;9.10;52.20
10121;DHT22;5100;45.176;5.714;2023-02-28T00:49:42;9.00;52.30
10121;DHT22;5100;45.176;5.714;2023-02-28T00:52:09;9.00;52.30
10121;DHT22;5100;45.176;5.714;2023-02-28T00:54:35;9.00;52.40
10121;DHT22;5100;45.176;5.714;2023-02-28T00:57:01;9.00;52.40
10121;DHT22;5100;45.176;5.714;2023-02-28T00:59:28;9.00;52.50
10121;DHT22;5100;45.176;5.714;2023-02-28T01:01:54;9.00;52.60
10121;DHT22;5100;45.176;5.714;2023-02-28T01:04:21;9.00;52.70
10121;DHT22;5100;45.176;5.714;2023-02-28T01:06:48;9.00;52.70
10121;DHT22;5100;45.176;5.714;2023-02-28T01:09:14;9.00;52.80
10121;DHT22;5100;45.176;5.714;2023-02-28T01:11:42;9.00;52.80
10121;DHT22;5100;45.176;5.714;2023-02-28T01:14:13;9.00;52.90
10121;DHT22;5100;45.176;5.714;2023-02-28T01:16:39;9.00;52.90
10121;DHT22;5100;45.176;5.714;2023-02-28T01:19:05;9.00;53.00
10121;DHT22;5100;45.176;5.714;2023-02-28T01:21:32;9.00;53.10
10121;DHT22;5100;45.176;5.714;2023-02-28T01:23:58;9.00;53.10
10121;DHT22;5100;45.176;5.714;2023-02-28T01:26:24;9.00;53.10
10121;DHT22;5100;45.176;5.714;2023-02-28T01:28:52;8.90;53.20
10121;DHT22;5100;45.176;5.714;2023-02-28T01:31:19;9.00;53.20
10121;DHT22;5100;45.176;5.714;2023-02-28T01:33:45;9.00;53.20
10121;DHT22;5100;45.176;5.714;2023-02-28T01:36:18;8.90;53.30
10121;DHT22;5100;45.176;5.714;2023-02-28T01:38:46;9.00;53.30
10121;DHT22;5100;45.176;5.714;2023-02-28T01:46:14;8.90;53.50
10121;DHT22;5100;45.176;5.714;2023-02-28T01:48:48;8.90;53.50
10121;DHT22;5100;45.176;5.714;2023-02-28T01:51:41;8.90;53.50
10121;DHT22;5100;45.176;5.714;2023-02-28T01:54:16;8.90;53.70
10121;DHT22;5100;45.176;5.714;2023-02-28T01:56:53;8.90;53.70
10121;DHT22;5100;45.176;5.714;2023-02-28T02:02:13;8.90;53.80
10121;DHT22;5100;45.176;5.714;2023-02-28T02:04:50;8.90;53.70
10121;DHT22;5100;45.176;5.714;2023-02-28T02:07:16;8.90;53.70
10121;DHT22;5100;45.176;5.714;2023-02-28T02:09:44;8.80;53.80
10121;DHT22;5100;45.176;5.714;2023-02-28T02:15:13;8.80;53.90
10121;DHT22;5100;45.176;5.714;2023-02-28T02:18:04;8.80;53.90
10121;DHT22;5100;45.176;5.714;2023-02-28T02:20:41;8.80;53.90
10121;DHT22;5100;45.176;5.714;2023-02-28T02:23:27;8.80;53.90
10121;DHT22;5100;45.176;5.714;2023-02-28T02:32:14;8.80;54.20
10121;DHT22;5100;45.176;5.714;2023-02-28T02:35:00;8.80;54.20
10121;DHT22;5100;45.176;5.714;2023-02-28T02:37:51;8.80;54.40
10121;DHT22;5100;45.176;5.714;2023-02-28T02:40:25;8.70;54.50
10121;DHT22;5100;45.176;5.714;2023-02-28T02:43:17;8.70;54.50
10121;DHT22;5100;45.176;5.714;2023-02-28T02:45:49;8.70;54.50
10121;DHT22;5100;45.176;5.714;2023-02-28T02:48:20;8.70;54.50
10121;DHT22;5100;45.176;5.714;2023-02-28T02:50:54;8.70;54.40
10121;DHT22;5100;45.176;5.714;2023-02-28T02:53:25;8.70;54.50
10121;DHT22;5100;45.176;5.714;2023-02-28T02:55:55;8.70;54.70
10121;DHT22;5100;45.176;5.714;2023-02-28T02:58:26;8.70;54.60
10121;DHT22;5100;45.176;5.714;2023-02-28T03:00:57;8.70;54.60
10121;DHT22;5100;45.176;5.714;2023-02-28T03:03:26;8.70;54.60
10121;DHT22;5100;45.176;5.714;2023-02-28T03:06:00;8.70;54.60
10121;DHT22;5100;45.176;5.714;2023-02-28T03:08:29;8.70;54.60
10121;DHT22;5100;45.176;5.714;2023-02-28T03:11:00;8.70;54.60
10121;DHT22;5100;45.176;5.714;2023-02-28T03:27:29;8.70;54.70
10121;DHT22;5100;45.176;5.714;2023-02-28T03:33:08;8.70;54.70
10121;DHT22;5100;45.176;5.714;2023-02-28T03:35:57;8.70;54.70
10121;DHT22;5100;45.176;5.714;2023-02-28T03:38:35;8.70;54.70
10121;DHT22;5100;45.176;5.714;2023-02-28T03:41:14;8.60;54.90
10121;DHT22;5100;45.176;5.714;2023-02-28T03:43:46;8.60;55.00
10121;DHT22;5100;45.176;5.714;2023-02-28T03:46:18;8.60;55.10
10121;DHT22;5100;45.176;5.714;2023-02-28T03:49:02;8.60;55.10
10121;DHT22;5100;45.176;5.714;2023-02-28T03:51:30;8.60;55.00
10121;DHT22;5100;45.176;5.714;2023-02-28T03:54:04;8.60;55.10
10121;DHT22;5100;45.176;5.714;2023-02-28T03:56:43;8.60;55.10
10121;DHT22;5100;45.176;5.714;2023-02-28T03:59:30;8.60;55.10
10121;DHT22;5100;45.176;5.714;2023-02-28T04:01:59;8.60;55.10
10121;DHT22;5100;45.176;5.714;2023-02-28T04:04:26;8.50;55.10
10121;DHT22;5100;45.176;5.714;2023-02-28T04:06:52;8.50;55.20
10121;DHT22;5100;45.176;5.714;2023-02-28T04:09:19;8.50;55.30
10121;DHT22;5100;45.176;5.714;2023-02-28T04:11:50;8.50;55.30
10121;DHT22;5100;45.176;5.714;2023-02-28T04:14:21;8.50;55.30
10121;DHT22;5100;45.176;5.714;2023-02-28T04:16:48;8.50;55.50
10121;DHT22;5100;45.176;5.714;2023-02-28T04:19:16;8.50;55.40
10121;DHT22;5100;45.176;5.714;2023-02-28T04:21:47;8.50;55.50
10121;DHT22;5100;45.176;5.714;2023-02-28T04:24:17;8.50;55.50
10121;DHT22;5100;45.176;5.714;2023-02-28T04:26:52;8.50;55.40
10121;DHT22;5100;45.176;5.714;2023-02-28T04:29:28;8.50;55.60
10121;DHT22;5100;45.176;5.714;2023-02-28T04:31:56;8.50;55.40
10121;DHT22;5100;45.176;5.714;2023-02-28T04:34:25;8.50;55.40
10121;DHT22;5100;45.176;5.714;2023-02-28T04:36:51;8.50;55.30
10121;DHT22;5100;45.176;5.714;2023-02-28T04:39:21;8.50;55.20
10121;DHT22;5100;45.176;5.714;2023-02-28T04:41:47;8.50;55.20
10121;DHT22;5100;45.176;5.714;2023-02-28T04:44:14;8.50;55.10
10121;DHT22;5100;45.176;5.714;2023-02-28T04:46:40;8.50;55.00
10121;DHT22;5100;45.176;5.714;2023-02-28T04:49:10;8.50;54.90
10121;DHT22;5100;45.176;5.714;2023-02-28T04:51:37;8.50;55.00
10121;DHT22;5100;45.176;5.714;2023-02-28T04:54:04;8.50;55.10
10121;DHT22;5100;45.176;5.714;2023-02-28T04:56:30;8.50;55.00
10121;DHT22;5100;45.176;5.714;2023-02-28T04:58:56;8.50;55.10
10121;DHT22;5100;45.176;5.714;2023-02-28T05:01:29;8.50;55.10
10121;DHT22;5100;45.176;5.714;2023-02-28T05:03:58;8.50;55.20
10121;DHT22;5100;45.176;5.714;2023-02-28T05:06:27;8.50;55.30
10121;DHT22;5100;45.176;5.714;2023-02-28T05:08:53;8.50;55.30
10121;DHT22;5100;45.176;5.714;2023-02-28T05:11:27;8.50;55.40
10121;DHT22;5100;45.176;5.714;2023-02-28T05:13:55;8.50;55.30
10121;DHT22;5100;45.176;5.714;2023-02-28T05:16:21;8.40;55.20
10121;DHT22;5100;45.176;5.714;2023-02-28T05:18:47;8.50;55.20
10121;DHT22;5100;45.176;5.714;2023-02-28T05:23:51;8.40;55.50
10121;DHT22;5100;45.176;5.714;2023-02-28T05:26:18;8.40;55.50
10121;DHT22;5100;45.176;5.714;2023-02-28T05:28:44;8.40;55.80
10121;DHT22;5100;45.176;5.714;2023-02-28T05:31:11;8.40;55.90
10121;DHT22;5100;45.176;5.714;2023-02-28T05:33:37;8.40;56.10
10121;DHT22;5100;45.176;5.714;2023-02-28T05:36:04;8.40;56.10
10121;DHT22;5100;45.176;5.714;2023-02-28T05:38:31;8.40;56.30
10121;DHT22;5100;45.176;5.714;2023-02-28T05:40:57;8.40;56.40
10121;DHT22;5100;45.176;5.714;2023-02-28T05:43:23;8.40;56.40
10121;DHT22;5100;45.176;5.714;2023-02-28T05:45:49;8.40;56.50
10121;DHT22;5100;45.176;5.714;2023-02-28T05:48:15;8.40;56.60
10121;DHT22;5100;45.176;5.714;2023-02-28T05:50:42;8.40;56.60
10121;DHT22;5100;45.176;5.714;2023-02-28T05:53:11;8.40;56.80
10121;DHT22;5100;45.176;5.714;2023-02-28T05:55:37;8.40;56.70
10121;DHT22;5100;45.176;5.714;2023-02-28T05:58:03;8.40;56.70
10121;DHT22;5100;45.176;5.714;2023-02-28T06:00:30;8.40;56.80
10121;DHT22;5100;45.176;5.714;2023-02-28T06:02:56;8.40;56.80
10121;DHT22;5100;45.176;5.714;2023-02-28T06:05:25;8.40;56.80
10121;DHT22;5100;45.176;5.714;2023-02-28T06:07:51;8.40;56.50
10121;DHT22;5100;45.176;5.714;2023-02-28T06:10:18;8.40;56.50
10121;DHT22;5100;45.176;5.714;2023-02-28T06:12:45;8.40;56.40
10121;DHT22;5100;45.176;5.714;2023-02-28T06:15:15;8.40;56.30
10121;DHT22;5100;45.176;5.714;2023-02-28T06:17:42;8.30;56.20
10121;DHT22;5100;45.176;5.714;2023-02-28T06:20:10;8.30;56.20
10121;DHT22;5100;45.176;5.714;2023-02-28T06:22:39;8.30;56.20
10121;DHT22;5100;45.176;5.714;2023-02-28T06:25:06;8.30;56.20
10121;DHT22;5100;45.176;5.714;2023-02-28T06:27:33;8.30;56.20
10121;DHT22;5100;45.176;5.714;2023-02-28T06:30:00;8.30;56.20
10121;DHT22;5100;45.176;5.714;2023-02-28T06:32:26;8.30;56.20
10121;DHT22;5100;45.176;5.714;2023-02-28T06:34:52;8.30;56.20
10121;DHT22;5100;45.176;5.714;2023-02-28T06:37:19;8.30;56.30
10121;DHT22;5100;45.176;5.714;2023-02-28T06:39:45;8.30;56.30
10121;DHT22;5100;45.176;5.714;2023-02-28T06:42:11;8.30;56.30
10121;DHT22;5100;45.176;5.714;2023-02-28T06:44:38;8.30;56.30
10121;DHT22;5100;45.176;5.714;2023-02-28T06:47:06;8.30;56.20
10121;DHT22;5100;45.176;5.714;2023-02-28T06:49:33;8.20;56.20
10121;DHT22;5100;45.176;5.714;2023-02-28T06:52:00;8.20;56.10
10121;DHT22;5100;45.176;5.714;2023-02-28T06:54:26;8.20;55.80
10121;DHT22;5100;45.176;5.714;2023-02-28T06:56:53;8.20;55.70
10121;DHT22;5100;45.176;5.714;2023-02-28T06:59:20;8.20;55.70
10121;DHT22;5100;45.176;5.714;2023-02-28T07:01:46;8.20;55.60
10121;DHT22;5100;45.176;5.714;2023-02-28T07:04:13;8.20;55.50
10121;DHT22;5100;45.176;5.714;2023-02-28T07:06:39;8.20;55.50
10121;DHT22;5100;45.176;5.714;2023-02-28T07:09:06;8.20;55.50
10121;DHT22;5100;45.176;5.714;2023-02-28T07:11:32;8.20;55.50
10121;DHT22;5100;45.176;5.714;2023-02-28T07:13:58;8.20;55.40
10121;DHT22;5100;45.176;5.714;2023-02-28T07:16:25;8.20;55.40
10121;DHT22;5100;45.176;5.714;2023-02-28T07:18:54;8.20;55.40
10121;DHT22;5100;45.176;5.714;2023-02-28T07:21:21;8.20;55.50
10121;DHT22;5100;45.176;5.714;2023-02-28T07:23:47;8.20;55.40
10121;DHT22;5100;45.176;5.714;2023-02-28T07:26:15;8.30;55.30
10121;DHT22;5100;45.176;5.714;2023-02-28T07:28:43;8.30;55.30
10121;DHT22;5100;45.176;5.714;2023-02-28T07:31:10;8.30;55.30
10121;DHT22;5100;45.176;5.714;2023-02-28T07:33:36;8.30;55.30
10121;DHT22;5100;45.176;5.714;2023-02-28T07:36:05;8.30;55.30
10121;DHT22;5100;45.176;5.714;2023-02-28T07:38:36;8.30;55.20
10121;DHT22;5100;45.176;5.714;2023-02-28T07:41:03;8.40;55.10
10121;DHT22;5100;45.176;5.714;2023-02-28T07:43:34;8.40;55.00
10121;DHT22;5100;45.176;5.714;2023-02-28T07:46:04;8.40;54.90
10121;DHT22;5100;45.176;5.714;2023-02-28T07:48:31;8.40;54.80
10121;DHT22;5100;45.176;5.714;2023-02-28T07:50:58;8.50;54.70
10121;DHT22;5100;45.176;5.714;2023-02-28T07:53:25;8.50;54.70
10121;DHT22;5100;45.176;5.714;2023-02-28T07:55:51;8.50;54.70
10121;DHT22;5100;45.176;5.714;2023-02-28T07:58:17;8.50;54.60
10121;DHT22;5100;45.176;5.714;2023-02-28T08:00:43;8.60;54.50
10121;DHT22;5100;45.176;5.714;2023-02-28T08:03:13;8.60;54.40
10121;DHT22;5100;45.176;5.714;2023-02-28T08:05:40;8.60;54.30
10121;DHT22;5100;45.176;5.714;2023-02-28T08:08:07;8.70;54.00
10121;DHT22;5100;45.176;5.714;2023-02-28T08:10:34;8.70;54.00
10121;DHT22;5100;45.176;5.714;2023-02-28T08:13:00;8.70;53.80
10121;DHT22;5100;45.176;5.714;2023-02-28T08:15:26;8.70;53.80
10121;DHT22;5100;45.176;5.714;2023-02-28T08:17:53;8.70;53.80
10121;DHT22;5100;45.176;5.714;2023-02-28T08:20:19;8.70;54.00
10121;DHT22;5100;45.176;5.714;2023-02-28T08:22:45;8.80;54.00
10121;DHT22;5100;45.176;5.714;2023-02-28T08:25:11;8.80;54.00
10121;DHT22;5100;45.176;5.714;2023-02-28T08:27:37;8.90;53.80
10121;DHT22;5100;45.176;5.714;2023-02-28T08:30:03;8.90;53.70
10121;DHT22;5100;45.176;5.714;2023-02-28T08:32:30;8.90;53.70
10121;DHT22;5100;45.176;5.714;2023-02-28T08:34:57;9.00;53.60
10121;DHT22;5100;45.176;5.714;2023-02-28T08:37:23;9.00;53.50
10121;DHT22;5100;45.176;5.714;2023-02-28T08:39:50;9.00;53.50
10121;DHT22;5100;45.176;5.714;2023-02-28T08:42:16;9.10;53.40
10121;DHT22;5100;45.176;5.714;2023-02-28T08:44:42;9.10;53.30
10121;DHT22;5100;45.176;5.714;2023-02-28T08:47:08;9.10;53.20
10121;DHT22;5100;45.176;5.714;2023-02-28T08:49:34;9.10;53.20
10121;DHT22;5100;45.176;5.714;2023-02-28T08:52:00;9.20;53.30
10121;DHT22;5100;45.176;5.714;2023-02-28T08:54:27;9.20;53.30
10121;DHT22;5100;45.176;5.714;2023-02-28T08:56:56;9.20;53.30
10121;DHT22;5100;45.176;5.714;2023-02-28T08:59:22;9.20;53.30
10121;DHT22;5100;45.176;5.714;2023-02-28T09:01:48;9.30;53.10
10121;DHT22;5100;45.176;5.714;2023-02-28T09:04:14;9.30;52.90
10121;DHT22;5100;45.176;5.714;2023-02-28T09:06:40;9.30;52.80
10121;DHT22;5100;45.176;5.714;2023-02-28T09:09:07;9.30;52.80
10121;DHT22;5100;45.176;5.714;2023-02-28T09:11:35;9.30;52.80
10121;DHT22;5100;45.176;5.714;2023-02-28T09:14:01;9.30;52.90
10121;DHT22;5100;45.176;5.714;2023-02-28T09:16:30;9.30;52.90
10121;DHT22;5100;45.176;5.714;2023-02-28T09:18:56;9.30;52.90
10121;DHT22;5100;45.176;5.714;2023-02-28T09:21:23;9.40;52.80
10121;DHT22;5100;45.176;5.714;2023-02-28T09:23:50;9.40;52.80
10121;DHT22;5100;45.176;5.714;2023-02-28T09:26:19;9.40;52.70
10121;DHT22;5100;45.176;5.714;2023-02-28T09:28:46;9.40;52.70
10121;DHT22;5100;45.176;5.714;2023-02-28T09:31:19;9.40;52.70
10121;DHT22;5100;45.176;5.714;2023-02-28T09:33:50;9.40;52.80
10121;DHT22;5100;45.176;5.714;2023-02-28T09:36:16;9.50;52.90
10121;DHT22;5100;45.176;5.714;2023-02-28T09:38:43;9.50;53.00
10121;DHT22;5100;45.176;5.714;2023-02-28T09:41:15;9.50;53.00
10121;DHT22;5100;45.176;5.714;2023-02-28T09:43:46;9.60;52.80
10121;DHT22;5100;45.176;5.714;2023-02-28T09:46:36;9.60;52.70
10121;DHT22;5100;45.176;5.714;2023-02-28T09:49:18;9.60;52.60
10121;DHT22;5100;45.176;5.714;2023-02-28T09:51:59;9.60;52.60
10121;DHT22;5100;45.176;5.714;2023-02-28T09:54:29;9.70;52.80
10121;DHT22;5100;45.176;5.714;2023-02-28T10:05:15;9.80;52.80
10121;DHT22;5100;45.176;5.714;2023-02-28T10:08:00;9.90;52.80
10121;DHT22;5100;45.176;5.714;2023-02-28T10:10:51;10.00;52.80
10121;DHT22;5100;45.176;5.714;2023-02-28T10:13:25;10.00;52.70
10121;DHT22;5100;45.176;5.714;2023-02-28T10:15:57;10.00;52.90
10121;DHT22;5100;45.176;5.714;2023-02-28T10:21:28;10.40;52.60
10121;DHT22;5100;45.176;5.714;2023-02-28T10:24:13;10.50;52.40
10121;DHT22;5100;45.176;5.714;2023-02-28T10:26:45;10.70;51.70
10121;DHT22;5100;45.176;5.714;2023-02-28T10:29:11;10.70;52.50
10121;DHT22;5100;45.176;5.714;2023-02-28T10:31:38;10.60;52.30
10121;DHT22;5100;45.176;5.714;2023-02-28T10:34:05;10.70;51.50
10121;DHT22;5100;45.176;5.714;2023-02-28T10:36:32;10.60;51.30
10121;DHT22;5100;45.176;5.714;2023-02-28T10:38:58;10.60;51.30
10121;DHT22;5100;45.176;5.714;2023-02-28T10:41:27;10.60;51.40
10121;DHT22;5100;45.176;5.714;2023-02-28T10:44:21;10.60;51.40
10121;DHT22;5100;45.176;5.714;2023-02-28T10:46:48;10.60;51.40
10121;DHT22;5100;45.176;5.714;2023-02-28T10:49:20;10.50;51.30
10121;DHT22;5100;45.176;5.714;2023-02-28T10:51:50;10.50;51.10
10121;DHT22;5100;45.176;5.714;2023-02-28T10:54:33;10.50;51.10
10121;DHT22;5100;45.176;5.714;2023-02-28T10:59:42;10.50;51.40
10121;DHT22;5100;45.176;5.714;2023-02-28T11:02:31;10.50;51.20
10121;DHT22;5100;45.176;5.714;2023-02-28T11:04:58;10.50;51.10
10121;DHT22;5100;45.176;5.714;2023-02-28T11:07:26;10.50;51.10
10121;DHT22;5100;45.176;5.714;2023-02-28T11:09:57;10.50;51.20
10121;DHT22;5100;45.176;5.714;2023-02-28T11:12:42;10.50;51.20
10121;DHT22;5100;45.176;5.714;2023-02-28T11:15:27;10.50;51.20
10121;DHT22;5100;45.176;5.714;2023-02-28T11:18:15;10.50;51.10
10121;DHT22;5100;45.176;5.714;2023-02-28T11:20:52;10.60;51.00
10121;DHT22;5100;45.176;5.714;2023-02-28T11:23:19;10.60;51.10
10121;DHT22;5100;45.176;5.714;2023-02-28T11:25:51;10.60;51.10
10121;DHT22;5100;45.176;5.714;2023-02-28T11:28:27;10.60;51.00
10121;DHT22;5100;45.176;5.714;2023-02-28T11:33:48;10.60;51.00
10121;DHT22;5100;45.176;5.714;2023-02-28T11:36:17;10.60;50.70
10121;DHT22;5100;45.176;5.714;2023-02-28T11:38:44;10.60;50.80
10121;DHT22;5100;45.176;5.714;2023-02-28T11:47:00;10.70;50.70
10121;DHT22;5100;45.176;5.714;2023-02-28T11:49:38;10.70;50.70
10121;DHT22;5100;45.176;5.714;2023-02-28T11:52:28;10.70;50.50
10121;DHT22;5100;45.176;5.714;2023-02-28T12:15:02;10.80;50.40
10121;DHT22;5100;45.176;5.714;2023-02-28T12:20:39;10.80;50.50
10121;DHT22;5100;45.176;5.714;2023-02-28T12:28:52;10.80;51.20
10121;DHT22;5100;45.176;5.714;2023-02-28T12:31:24;10.80;50.60
10121;DHT22;5100;45.176;5.714;2023-02-28T12:33:53;10.90;50.60
10121;DHT22;5100;45.176;5.714;2023-02-28T12:36:22;10.90;50.70
10121;DHT22;5100;45.176;5.714;2023-02-28T12:39:31;10.90;50.70
10121;DHT22;5100;45.176;5.714;2023-02-28T12:42:13;11.00;50.50
10121;DHT22;5100;45.176;5.714;2023-02-28T12:44:46;11.00;50.60
10121;DHT22;5100;45.176;5.714;2023-02-28T12:47:15;11.00;50.20
10121;DHT22;5100;45.176;5.714;2023-02-28T12:50:05;11.00;50.40
10121;DHT22;5100;45.176;5.714;2023-02-28T12:55:19;11.10;50.10
10121;DHT22;5100;45.176;5.714;2023-02-28T12:58:44;11.10;50.00
10121;DHT22;5100;45.176;5.714;2023-02-28T13:11:40;11.10;49.90
10121;DHT22;5100;45.176;5.714;2023-02-28T13:14:43;11.10;50.00
10121;DHT22;5100;45.176;5.714;2023-02-28T13:17:11;11.10;50.40
10121;DHT22;5100;45.176;5.714;2023-02-28T13:27:51;11.10;49.90
10121;DHT22;5100;45.176;5.714;2023-02-28T13:44:13;11.20;49.80
10121;DHT22;5100;45.176;5.714;2023-02-28T13:49:31;11.40;49.20
10121;DHT22;5100;45.176;5.714;2023-02-28T13:55:06;11.30;49.30
10121;DHT22;5100;45.176;5.714;2023-02-28T14:05:22;11.30;49.60
10121;DHT22;5100;45.176;5.714;2023-02-28T14:07:57;11.20;49.80
10121;DHT22;5100;45.176;5.714;2023-02-28T14:10:41;11.20;49.70
10121;DHT22;5100;45.176;5.714;2023-02-28T14:13:44;11.20;49.80
10121;DHT22;5100;45.176;5.714;2023-02-28T14:16:16;11.20;49.80
10121;DHT22;5100;45.176;5.714;2023-02-28T14:18:50;11.20;49.80
10121;DHT22;5100;45.176;5.714;2023-02-28T14:21:27;11.10;49.90
10121;DHT22;5100;45.176;5.714;2023-02-28T14:34:52;11.10;50.00
10121;DHT22;5100;45.176;5.714;2023-02-28T14:37:29;11.10;50.00
10121;DHT22;5100;45.176;5.714;2023-02-28T14:39:57;11.10;50.10
10121;DHT22;5100;45.176;5.714;2023-02-28T14:42:32;11.10;50.00
10121;DHT22;5100;45.176;5.714;2023-02-28T14:44:59;11.00;50.10
10121;DHT22;5100;45.176;5.714;2023-02-28T14:47:31;11.00;50.10
10121;DHT22;5100;45.176;5.714;2023-02-28T14:50:03;11.00;50.20
10121;DHT22;5100;45.176;5.714;2023-02-28T14:52:31;10.90;50.20
10121;DHT22;5100;45.176;5.714;2023-02-28T14:55:00;10.90;50.30
10121;DHT22;5100;45.176;5.714;2023-02-28T14:57:33;10.90;50.30
10121;DHT22;5100;45.176;5.714;2023-02-28T15:00:13;10.80;50.30
10121;DHT22;5100;45.176;5.714;2023-02-28T15:02:40;10.80;50.30
10121;DHT22;5100;45.176;5.714;2023-02-28T15:05:29;10.80;50.50
10121;DHT22;5100;45.176;5.714;2023-02-28T15:08:22;10.80;50.60
10121;DHT22;5100;45.176;5.714;2023-02-28T15:11:02;10.80;50.70
10121;DHT22;5100;45.176;5.714;2023-02-28T15:13:40;10.70;50.80
10121;DHT22;5100;45.176;5.714;2023-02-28T15:16:55;10.70;50.80
10121;DHT22;5100;45.176;5.714;2023-02-28T15:19:00;10.70;50.80
10121;DHT22;5100;45.176;5.714;2023-02-28T15:21:39;10.60;51.10
10121;DHT22;5100;45.176;5.714;2023-02-28T15:24:15;10.60;50.90
10121;DHT22;5100;45.176;5.714;2023-02-28T15:26:46;10.60;51.10
10121;DHT22;5100;45.176;5.714;2023-02-28T15:29:21;10.60;51.20
10121;DHT22;5100;45.176;5.714;2023-02-28T15:31:58;10.60;51.30
10121;DHT22;5100;45.176;5.714;2023-02-28T15:34:40;10.50;51.40
10121;DHT22;5100;45.176;5.714;2023-02-28T15:39:53;10.50;51.40
10121;DHT22;5100;45.176;5.714;2023-02-28T15:42:21;10.50;51.40
10121;DHT22;5100;45.176;5.714;2023-02-28T15:44:48;10.50;51.50
10121;DHT22;5100;45.176;5.714;2023-02-28T15:47:17;10.40;51.50
10121;DHT22;5100;45.176;5.714;2023-02-28T15:50:08;10.40;51.50
10121;DHT22;5100;45.176;5.714;2023-02-28T15:52:42;10.40;51.60
10121;DHT22;5100;45.176;5.714;2023-02-28T15:57:51;10.40;51.70
10121;DHT22;5100;45.176;5.714;2023-02-28T16:00:22;10.40;51.60
10121;DHT22;5100;45.176;5.714;2023-02-28T16:02:49;10.30;51.70
10121;DHT22;5100;45.176;5.714;2023-02-28T16:05:30;10.30;51.70
10121;DHT22;5100;45.176;5.714;2023-02-28T16:08:17;10.30;51.80
10121;DHT22;5100;45.176;5.714;2023-02-28T16:10:43;10.30;51.90
10121;DHT22;5100;45.176;5.714;2023-02-28T16:13:11;10.30;51.90
10121;DHT22;5100;45.176;5.714;2023-02-28T16:15:42;10.20;51.90
10121;DHT22;5100;45.176;5.714;2023-02-28T16:18:12;10.20;52.10
10121;DHT22;5100;45.176;5.714;2023-02-28T16:20:39;10.20;52.30
10121;DHT22;5100;45.176;5.714;2023-02-28T16:23:05;10.10;52.30
10121;DHT22;5100;45.176;5.714;2023-02-28T16:25:39;10.10;52.30
10121;DHT22;5100;45.176;5.714;2023-02-28T16:28:28;10.10;52.10
10121;DHT22;5100;45.176;5.714;2023-02-28T16:31:00;10.10;52.30
10121;DHT22;5100;45.176;5.714;2023-02-28T16:33:29;10.10;52.30
10121;DHT22;5100;45.176;5.714;2023-02-28T16:35:55;10.10;52.30
10121;DHT22;5100;45.176;5.714;2023-02-28T16:38:21;10.10;52.30
10121;DHT22;5100;45.176;5.714;2023-02-28T16:40:50;10.10;52.30
10121;DHT22;5100;45.176;5.714;2023-02-28T16:43:23;10.10;52.40
10121;DHT22;5100;45.176;5.714;2023-02-28T16:45:59;10.00;52.40
10121;DHT22;5100;45.176;5.714;2023-02-28T16:48:27;10.00;52.40
10121;DHT22;5100;45.176;5.714;2023-02-28T16:50:53;10.10;52.30
10121;DHT22;5100;45.176;5.714;2023-02-28T16:53:19;10.00;52.30
10121;DHT22;5100;45.176;5.714;2023-02-28T16:55:45;10.00;52.30
10121;DHT22;5100;45.176;5.714;2023-02-28T16:58:15;10.00;52.30
10121;DHT22;5100;45.176;5.714;2023-02-28T17:00:41;10.00;52.40
10121;DHT22;5100;45.176;5.714;2023-02-28T17:03:27;10.00;52.50
10121;DHT22;5100;45.176;5.714;2023-02-28T17:05:54;10.00;52.50
10121;DHT22;5100;45.176;5.714;2023-02-28T17:08:20;10.00;52.40
10121;DHT22;5100;45.176;5.714;2023-02-28T17:10:46;10.00;52.40
10121;DHT22;5100;45.176;5.714;2023-02-28T17:13:12;9.90;52.40
10121;DHT22;5100;45.176;5.714;2023-02-28T17:15:38;9.90;52.50
10121;DHT22;5100;45.176;5.714;2023-02-28T17:18:05;9.90;52.50
10121;DHT22;5100;45.176;5.714;2023-02-28T17:20:31;9.90;52.60
10121;DHT22;5100;45.176;5.714;2023-02-28T17:22:57;9.90;52.60
10121;DHT22;5100;45.176;5.714;2023-02-28T17:25:24;9.80;52.70
10121;DHT22;5100;45.176;5.714;2023-02-28T17:27:51;9.90;52.60
10121;DHT22;5100;45.176;5.714;2023-02-28T17:30:23;9.80;52.60
10121;DHT22;5100;45.176;5.714;2023-02-28T17:32:49;9.80;52.70
10121;DHT22;5100;45.176;5.714;2023-02-28T17:35:16;9.80;52.70
10121;DHT22;5100;45.176;5.714;2023-02-28T17:37:42;9.80;52.60
10121;DHT22;5100;45.176;5.714;2023-02-28T17:40:19;9.80;52.60
10121;DHT22;5100;45.176;5.714;2023-02-28T17:42:45;9.80;52.60
10121;DHT22;5100;45.176;5.714;2023-02-28T17:45:12;9.80;52.50
10121;DHT22;5100;45.176;5.714;2023-02-28T17:47:38;9.80;52.40
10121;DHT22;5100;45.176;5.714;2023-02-28T17:50:06;9.80;52.40
10121;DHT22;5100;45.176;5.714;2023-02-28T17:52:32;9.80;52.50
10121;DHT22;5100;45.176;5.714;2023-02-28T17:55:03;9.80;52.40
10121;DHT22;5100;45.176;5.714;2023-02-28T17:57:30;9.80;52.40
10121;DHT22;5100;45.176;5.714;2023-02-28T17:59:56;9.80;52.30
10121;DHT22;5100;45.176;5.714;2023-02-28T18:02:22;9.80;52.30
10121;DHT22;5100;45.176;5.714;2023-02-28T18:04:48;9.70;52.30
10121;DHT22;5100;45.176;5.714;2023-02-28T18:07:14;9.70;52.30
10121;DHT22;5100;45.176;5.714;2023-02-28T18:09:41;9.70;52.30
10121;DHT22;5100;45.176;5.714;2023-02-28T18:12:08;9.70;52.30
10121;DHT22;5100;45.176;5.714;2023-02-28T18:14:34;9.70;52.30
10121;DHT22;5100;45.176;5.714;2023-02-28T18:16:59;9.70;52.20
10121;DHT22;5100;45.176;5.714;2023-02-28T18:19:26;9.70;52.20
10121;DHT22;5100;45.176;5.714;2023-02-28T18:21:52;9.70;52.20
10121;DHT22;5100;45.176;5.714;2023-02-28T18:24:20;9.70;52.20
10121;DHT22;5100;45.176;5.714;2023-02-28T18:26:47;9.70;52.10
10121;DHT22;5100;45.176;5.714;2023-02-28T18:29:24;9.70;52.20
10121;DHT22;5100;45.176;5.714;2023-02-28T18:31:52;9.70;52.30
10121;DHT22;5100;45.176;5.714;2023-02-28T18:34:18;9.70;52.20
10121;DHT22;5100;45.176;5.714;2023-02-28T18:36:45;9.70;52.30
10121;DHT22;5100;45.176;5.714;2023-02-28T18:39:14;9.70;52.40
10121;DHT22;5100;45.176;5.714;2023-02-28T18:41:40;9.70;52.40
10121;DHT22;5100;45.176;5.714;2023-02-28T18:44:06;9.70;52.40
10121;DHT22;5100;45.176;5.714;2023-02-28T18:46:33;9.70;52.40
10121;DHT22;5100;45.176;5.714;2023-02-28T18:49:00;9.70;52.40
10121;DHT22;5100;45.176;5.714;2023-02-28T18:51:27;9.70;52.30